Station: Narrandera Airport  

  Atmospheric Gas Attenuation - ITU Rec 676-11   ----------------- dB/100km -----------------
Date Time Temp RH % AH g/m3 Dew Point Wind Direction Speed kph Gust kph Barometer mB Rainfall Since 9am 24GHz 47GHz 76GHz 122GHz 134GHz 241GHz
08/05 12:30 16.2 60 8.27 8.4 26 35 1023.1 0 18.8 25.1 37.8 98.9 92.0 316.2
08/05 12:20 16.4 59 8.23 8.4 24 32 1023.3 0 18.7 24.9 37.5 98.3 91.3 313.7
08/05 12:10 16 62 8.45 8.7 17 20 1023.6 0 19.2 25.4 38.6 101.1 94.6 325.2
08/05 12:00 15.9 63 8.53 8.9 19 33 1023.8 0 19.3 25.6 38.9 102.1 95.7 329.3
08/05 11:50 16 64 8.72 9.2 13 19 1023.8 0 19.7 25.8 39.6 103.9 98.1 337.5
08/05 11:40 15.2 64 8.31 8.4 24 28 1023.9 0 18.9 25.4 38.4 100.7 93.7 322.2
08/05 11:30 14.9 65 8.28 8.4 22 32 1024.1 0 18.8 25.5 38.5 100.7 93.7 322.2
08/05 11:20 14.9 66 8.41 8.6 24 28 1024.2 0 19.1 25.7 39.0 102.1 95.4 328.1
08/05 11:10 14.3 67 8.23 8.3 22 28 1024.4 0 18.8 25.6 38.6 101.0 93.8 322.4
08/05 11:00 14.6 67 8.38 8.5 24 37 1024.4 0 19.1 25.7 39.0 102.2 95.4 328.0
08/05 10:50 14.8 67 8.49 8.7 17 20 1024.5 0 19.3 25.8 39.4 103.1 96.6 332.2
08/05 10:40 14.4 66 8.16 8.1 20 28 1024.6 0 18.6 25.4 38.3 100.2 92.8 318.9
08/05 10:30 13.9 68 8.15 8.1 22 30 1024.7 0 18.6 25.6 38.5 100.7 93.3 320.4
08/05 10:20 13.9 71 8.51 8.7 17 24 1024.6 0 19.4 26.1 39.9 104.5 98.0 337.0
08/05 10:10 13.1 71 8.1 8 19 22 1024.7 0 18.5 25.7 38.6 101.2 93.6 321.4
08/05 10:00 12.8 71 7.95 7.7 20 28 1024.8 0 18.2 25.6 38.2 100.0 92.0 315.7
08/05 09:50 13.2 70 8.04 7.9 22 28 1024.7 0 18.4 25.6 38.4 100.4 92.7 318.2
08/05 09:40 12.8 71 7.95 7.7 17 20 1024.9 0 18.2 25.6 38.2 100.0 92.0 315.7
08/05 09:30 12.5 71 7.81 7.4 20 28 1024.9 0 18.0 25.4 37.8 98.9 90.5 310.5
08/05 09:20 12 72 7.67 7.1 22 24 1024.7 0 17.7 25.3 37.4 98.0 89.2 305.9
08/05 09:10 11.9 74 7.84 7.4 19 24 1024.6 0 18.0 25.6 38.2 99.9 91.6 314.1
08/05 09:00 11.5 75 7.75 7.2 22 32 1024.7 0 17.9 25.6 38.0 99.5 90.8 311.6
08/05 08:50 10.8 76 7.51 6.7 20 24 1024.7 0 17.4 25.4 37.4 97.8 88.5 303.1
08/05 08:40 11.1 75 7.56 6.8 20 24 1024.6 0 17.5 25.4 37.4 97.9 88.8 304.3
08/05 08:30 10.9 77 7.66 7 17 24 1024.7 0 17.7 25.6 37.9 99.3 90.3 309.7
08/05 08:20 10.2 79 7.52 6.7 17 20 1024.6 0 17.4 25.6 37.7 98.6 89.3 305.9
08/05 08:10 10.2 78 7.42 6.5 20 24 1024.7 0 17.2 25.4 37.3 97.5 87.9 301.2
08/05 08:00 10.1 78 7.38 6.4 19 30 1024.9 0 17.1 25.4 37.2 97.2 87.5 299.8
08/05 07:50 10.2 78 7.42 6.5 19 20 1024.7 0 17.2 25.4 37.3 97.5 87.9 301.2
08/05 07:40 10.1 77 7.28 6.3 20 24 1024.6 0 16.9 25.2 36.8 96.1 86.2 295.0
08/05 07:30 10.1 77 7.28 6.3 20 32 1024.7 0 16.9 25.2 36.8 96.1 86.2 295.0
08/05 07:20 10.1 77 7.28 6.3 19 22 1024.5 0 16.9 25.2 36.8 96.1 86.2 295.0
08/05 07:10 10.2 75 7.14 6 24 28 1024.4 0 16.6 25.0 36.1 94.5 84.2 288.1
08/05 07:00 10.3 75 7.18 6.1 24 35 1024.3 0 16.7 25.0 36.3 94.8 84.6 289.5
08/05 06:50 10.3 74 7.09 5.9 24 28 1024.4 0 16.5 24.9 35.9 93.8 83.4 285.4
08/05 06:40 10.3 73 6.99 5.7 24 28 1024.3 0 16.3 24.7 35.5 92.7 82.1 280.8
08/05 06:30 10.3 73 6.99 5.7 19 26 1024.3 0 16.3 24.7 35.5 92.7 82.1 280.8
08/05 06:20 10.2 73 6.95 5.6 22 24 1024.2 0 16.2 24.7 35.4 92.4 81.7 279.3
08/05 06:10 10.1 72 6.81 5.3 20 24 1024.1 0 15.9 24.5 34.9 91.0 79.9 273.1
08/05 06:00 10.1 72 6.81 5.3 17 24 1023.9 0 15.9 24.5 34.8 91.0 79.9 273.1
08/05 05:50 10 72 6.77 5.2 13 15 1023.9 0 15.8 24.4 34.7 90.7 79.5 271.6
08/05 05:40 10.1 71 6.72 5.1 15 20 1023.8 0 15.7 24.3 34.5 90.1 78.7 269.0
08/05 05:30 10.1 71 6.72 5.1 15 24 1023.9 0 15.7 24.3 34.5 90.1 78.7 269.0
08/05 05:20 10.1 71 6.72 5.1 17 22 1023.9 0 15.7 24.3 34.5 90.1 78.7 269.0
08/05 05:10 10 71 6.67 5 19 20 1023.8 0 15.6 24.3 34.3 89.7 78.2 267.0
08/05 05:00 9.8 71 6.59 4.8 17 26 1023.8 0 15.5 24.2 34.1 89.0 77.3 264.0
08/05 04:50 9.8 71 6.59 4.8 17 17 1023.8 0 15.5 24.2 34.1 89.0 77.3 264.0
08/05 04:40 9.9 70 6.54 4.7 19 20 1023.9 0 15.4 24.1 33.9 88.4 76.6 261.4
08/05 04:30 9.9 70 6.54 4.7 15 20 1023.8 0 15.4 24.1 33.9 88.4 76.6 261.4
08/05 04:20 9.8 70 6.5 4.6 13 19 1023.8 0 15.3 24.0 33.7 88.1 76.2 259.9
08/05 04:10 9.8 70 6.5 4.6 15 19 1023.7 0 15.3 24.0 33.7 88.1 76.2 259.9
08/05 04:00 9.6 70 6.41 4.4 15 20 1023.5 0 15.1 23.9 33.5 87.3 75.2 256.4
08/05 03:50 9.4 70 6.33 4.2 19 20 1023.5 0 14.9 23.9 33.2 86.7 74.3 253.4
08/05 03:40 9.4 69 6.24 4 15 20 1023.5 0 14.7 23.7 32.9 85.8 73.2 249.4
08/05 03:30 9.6 69 6.32 4.2 15 24 1023.7 0 14.9 23.8 33.1 86.4 74.0 252.4
08/05 03:20 9.5 69 6.28 4.1 13 15 1023.9 0 14.8 23.8 33.0 86.1 73.6 250.9
08/05 03:10 9.4 69 6.24 4 11 17 1023.9 0 14.7 23.7 32.9 85.8 73.2 249.4
08/05 03:00 9.4 69 6.24 4 15 22 1023.9 0 14.7 23.7 32.9 85.8 73.2 249.4
08/05 02:50 9.3 69 6.2 3.9 13 17 1023.9 0 14.6 23.7 32.8 85.5 72.8 247.9
08/05 02:40 9.2 69 6.16 3.8 17 20 1023.8 0 14.6 23.7 32.7 85.2 72.3 246.4
08/05 02:30 9 69 6.09 3.6 15 22 1023.9 0 14.4 23.6 32.5 84.7 71.6 243.9
08/05 02:20 9 69 6.09 3.6 13 15 1024.1 0 14.4 23.6 32.5 84.7 71.6 243.9
08/05 02:10 9.1 68 6.04 3.5 11 13 1024.1 0 14.3 23.5 32.2 84.1 70.9 241.4
08/05 02:00 9.4 67 6.06 3.6 17 22 1024.1 0 14.3 23.5 32.2 84.0 70.9 241.4
08/05 01:50 9.6 66 6.05 3.6 15 17 1024.3 0 14.3 23.4 32.1 83.7 70.6 240.4
08/05 01:40 9.5 66 6.01 3.5 15 19 1024.3 0 14.2 23.4 32.0 83.4 70.2 238.9
08/05 01:30 9.6 66 6.05 3.6 19 26 1024.4 0 14.3 23.4 32.1 83.7 70.6 240.4
08/05 01:20 9.6 65 5.96 3.4 19 20 1024.3 0 14.1 23.3 31.7 82.7 69.5 236.3
08/05 01:10 9.7 65 5.99 3.4 17 19 1024.4 0 14.2 23.3 31.8 82.9 69.8 237.4
08/05 01:00 9.7 65 5.99 3.4 19 26 1024.4 0 14.2 23.3 31.8 82.9 69.8 237.4
08/05 00:50 9.8 64 5.94 3.3 22 30 1024.5 0 14.1 23.2 31.6 82.3 69.0 234.9
08/05 00:40 9.7 64 5.9 3.2 17 20 1024.4 0 14.0 23.1 31.5 82.0 68.6 233.4
08/05 00:20 9.9 62 5.79 3 19 22 1024.6 0 13.8 22.9 31.0 80.7 67.1 228.0
08/05 00:10 9.7 63 5.81 3 13 15 1024.6 0 13.8 23.0 31.1 81.1 67.5 229.4
08/05 00:00 9.4 64 5.79 2.9 13 15 1024.8 0 13.8 23.1 31.2 81.2 67.5 229.4
07/05 23:50 9.5 63 5.74 2.8 13 15 1024.8 0 13.7 23.0 31.0 80.6 66.8 226.9
07/05 23:40 9.1 65 5.77 2.9 11 13 1024.9 0 13.7 23.1 31.2 81.3 67.5 229.4
07/05 23:30 8.9 66 5.78 2.9 11 15 1025.1 0 13.8 23.2 31.4 81.7 67.8 230.5
07/05 23:20 8.5 68 5.81 2.9 11 15 1025 0 13.8 23.3 31.6 82.4 68.5 233.0
07/05 23:10 7.7 73 5.92 3.2 9 11 1025 0 14.1 23.7 32.4 84.4 70.7 240.4
07/05 23:00 7.3 75 5.93 3.2 7 11 1025.1 0 14.1 23.8 32.6 84.9 71.2 242.1
07/05 22:50 7.5 72 5.77 2.8 11 11 1025.1 0 13.8 23.5 31.9 83.0 68.9 234.1
07/05 22:40 7.9 68 5.59 2.4 9 11 1025 0 13.4 23.1 31.0 80.7 66.2 224.8
07/05 22:30 8.1 67 5.58 2.4 9 13 1025.2 0 13.4 23.1 30.9 80.4 66.0 223.8
07/05 22:20 8.5 65 5.55 2.3 9 11 1025.2 0 13.3 22.9 30.6 79.7 65.2 221.4
07/05 22:10 8.6 65 5.59 2.4 11 13 1025.4 0 13.4 23.0 30.8 80.0 65.7 222.9
07/05 22:00 8.6 64 5.5 2.2 11 15 1025.4 0 13.2 22.8 30.4 79.1 64.5 218.9
07/05 21:50 8.9 63 5.52 2.3 11 13 1025.4 0 13.2 22.8 30.4 79.0 64.5 219.0
07/05 21:40 9 62 5.47 2.1 15 19 1025.2 0 13.1 22.7 30.1 78.4 63.8 216.5
07/05 21:30 8.9 62 5.43 2 13 20 1025.4 0 13.0 22.7 30.0 78.1 63.4 215.0
07/05 21:20 8.9 63 5.52 2.3 13 17 1025.2 0 13.2 22.8 30.4 79.0 64.5 218.9
07/05 21:10 8.9 62 5.43 2 13 15 1025.1 0 13.0 22.6 30.0 78.1 63.4 214.9
07/05 21:00 9 61 5.38 1.9 13 17 1025.1 0 12.9 22.5 29.8 77.5 62.7 212.5
07/05 20:50 9 61 5.38 1.9 9 13 1025 0 12.9 22.5 29.8 77.5 62.7 212.4
07/05 20:40 9 60 5.29 1.7 7 9 1025 0 12.7 22.4 29.4 76.6 61.6 208.5
07/05 20:30 9 60 5.29 1.7 11 17 1025.1 0 12.7 22.4 29.5 76.6 61.6 208.5
07/05 20:20 9 60 5.29 1.7 11 15 1025.1 0 12.7 22.4 29.5 76.6 61.6 208.5
07/05 20:10 9 59 5.2 1.4 9 9 1025 0 12.5 22.3 29.1 75.7 60.4 204.6
07/05 20:00 9.4 57 5.16 1.3 9 13 1025.3 0 12.4 22.1 28.8 74.9 59.6 201.9
07/05 19:50 9.6 57 5.22 1.5 13 15 1025.1 0 12.6 22.2 29.0 75.3 60.2 203.9

Last Refresh: 08-May-2026 12:08:18

Bureau of Meteorology